Time;durP1;ratioP1;P1;durP2;ratioP2;P2;SDS_P1;SDS_P2;PMS_P1;PMS_P2;Temp;Humidity;BMP_temperature;BMP_pressure;BME280_temperature;BME280_humidity;BME280_pressure;Samples;Min_cycle;Max_cycle;Signal;HPM_P1;HPM_P2
2022/01/08 00:00:37;;;;;;;1.80;1.70;;;;;;;;;;4995874;28;20208;-81
2022/01/08 00:03:04;;;;;;;2.50;2.30;;;;;;;;;;4995200;28;20203;-82
2022/01/08 00:05:32;;;;;;;2.08;1.88;;;;;;;;;;4995568;28;20200;-82
2022/01/08 00:08:01;;;;;;;1.92;1.80;;;;;;;;;;4995360;28;20212;-81
2022/01/08 00:10:28;;;;;;;1.77;1.67;;;;;;;;;;4994933;28;20620;-82
2022/01/08 00:12:56;;;;;;;2.05;1.95;;;;;;;;;;4995063;28;20227;-82
2022/01/08 00:15:24;;;;;;;1.83;1.73;;;;;;;;;;4995981;28;20706;-82
2022/01/08 00:17:51;;;;;;;2.00;1.90;;;;;;;;;;4995116;28;20723;-82
2022/01/08 00:20:19;;;;;;;1.83;1.73;;;;;;;;;;4995526;28;20207;-81
2022/01/08 00:22:50;;;;;;;2.50;2.30;;;;;;;;;;4995186;28;20200;-80
2022/01/08 00:25:19;;;;;;;2.63;2.42;;;;;;;;;;4995620;28;20199;-81
2022/01/08 00:27:46;;;;;;;2.40;2.20;;;;;;;;;;4995287;28;20231;-81
2022/01/08 00:30:14;;;;;;;2.63;2.42;;;;;;;;;;4995882;28;20188;-81
2022/01/08 00:32:42;;;;;;;2.97;2.58;;;;;;;;;;4995498;28;20260;-81
2022/01/08 00:35:10;;;;;;;2.38;2.00;;;;;;;;;;4994815;28;20230;-81
2022/01/08 00:37:38;;;;;;;2.83;2.63;;;;;;;;;;4995310;28;20598;-82
2022/01/08 00:40:08;;;;;;;2.25;2.15;;;;;;;;;;4994543;28;20210;-81
2022/01/08 00:42:37;;;;;;;2.42;2.33;;;;;;;;;;4994838;28;20184;-82
2022/01/08 00:45:06;;;;;;;2.30;2.10;;;;;;;;;;4994968;28;20204;-81
2022/01/08 00:47:34;;;;;;;2.63;2.40;;;;;;;;;;4995005;28;20224;-81
2022/01/08 00:50:03;;;;;;;1.90;1.80;;;;;;;;;;4994403;28;20251;-81
2022/01/08 00:52:30;;;;;;;2.13;2.00;;;;;;;;;;4994710;28;20238;-81
2022/01/08 00:54:58;;;;;;;1.70;1.60;;;;;;;;;;4994965;28;20187;-81
2022/01/08 00:57:25;;;;;;;2.00;1.90;;;;;;;;;;4994482;28;20234;-81
2022/01/08 00:59:54;;;;;;;2.65;2.45;;;;;;;;;;4993626;28;20698;-81
2022/01/08 01:02:21;;;;;;;2.00;1.90;;;;;;;;;;4994808;28;20188;-81
2022/01/08 01:04:49;;;;;;;3.85;2.28;;;;;;;;;;4994443;28;20613;-82
2022/01/08 01:07:17;;;;;;;1.83;1.70;;;;;;;;;;4994380;28;20231;-81
2022/01/08 01:09:45;;;;;;;2.00;1.85;;;;;;;;;;4994858;28;20194;-81
2022/01/08 01:12:13;;;;;;;2.53;2.38;;;;;;;;;;4994081;28;20227;-82
2022/01/08 01:14:40;;;;;;;3.58;3.28;;;;;;;;;;4994668;28;20203;-82
2022/01/08 01:17:09;;;;;;;2.15;2.05;;;;;;;;;;4994642;28;20220;-82
2022/01/08 01:19:37;;;;;;;1.70;1.60;;;;;;;;;;4994646;28;20566;-82
2022/01/08 01:22:05;;;;;;;2.03;1.90;;;;;;;;;;4994585;28;20192;-82
2022/01/08 01:24:34;;;;;;;2.38;2.17;;;;;;;;;;4994433;28;20258;-82
2022/01/08 01:27:32;;;;;;;2.13;2.03;;;;;;;;;;4994395;28;20318;-82
2022/01/08 01:30:05;;;;;;;2.30;2.10;;;;;;;;;;4993871;28;20745;-81
2022/01/08 01:41:20;;;;;;;2.40;2.25;;;;;;;;;;4914797;29;20202;-81
2022/01/08 01:49:19;;;;;;;2.13;2.03;;;;;;;;;;4994452;28;20313;-81
2022/01/08 01:51:47;;;;;;;1.83;1.73;;;;;;;;;;4993913;28;20200;-82
2022/01/08 01:54:14;;;;;;;2.22;2.03;;;;;;;;;;4993981;28;20204;-82
2022/01/08 01:56:42;;;;;;;2.13;2.00;;;;;;;;;;4993774;28;20222;-81
2022/01/08 01:59:09;;;;;;;2.20;2.00;;;;;;;;;;4994277;28;20212;-81
2022/01/08 02:01:37;;;;;;;2.10;2.00;;;;;;;;;;4994468;28;20572;-82
2022/01/08 02:04:05;;;;;;;2.00;1.90;;;;;;;;;;4993705;28;20211;-82
2022/01/08 02:06:34;;;;;;;2.67;2.47;;;;;;;;;;4994111;28;20231;-82
2022/01/08 02:09:01;;;;;;;1.85;1.75;;;;;;;;;;4993611;28;20203;-82
2022/01/08 02:11:29;;;;;;;2.22;2.03;;;;;;;;;;4994377;28;20192;-82
2022/01/08 02:14:03;;;;;;;2.60;2.40;;;;;;;;;;4993578;28;20250;-82
2022/01/08 02:16:30;;;;;;;1.80;1.70;;;;;;;;;;4994487;28;20671;-82
2022/01/08 02:18:58;;;;;;;2.30;2.10;;;;;;;;;;4994151;28;20188;-82
2022/01/08 02:21:28;;;;;;;2.20;2.00;;;;;;;;;;4993802;28;20199;-81
2022/01/08 02:23:55;;;;;;;1.70;1.60;;;;;;;;;;4994488;28;20547;-82
2022/01/08 02:26:23;;;;;;;2.47;2.28;;;;;;;;;;4994162;28;20200;-81
2022/01/08 02:28:50;;;;;;;1.88;1.77;;;;;;;;;;4994211;28;20212;-81
2022/01/08 02:31:24;;;;;;;2.05;1.95;;;;;;;;;;4993320;28;20207;-81
2022/01/08 02:33:53;;;;;;;1.73;1.63;;;;;;;;;;4993024;28;20227;-81
2022/01/08 02:36:21;;;;;;;2.53;2.33;;;;;;;;;;4992794;28;20710;-81
2022/01/08 02:38:50;;;;;;;1.95;1.85;;;;;;;;;;4993008;28;20214;-81
2022/01/08 02:41:18;;;;;;;2.40;2.30;;;;;;;;;;4992972;28;20235;-83
2022/01/08 02:43:52;;;;;;;1.77;1.67;;;;;;;;;;4993385;28;20191;-83
2022/01/08 02:46:19;;;;;;;1.63;1.52;;;;;;;;;;4996093;28;20278;-82
2022/01/08 02:48:47;;;;;;;2.47;2.28;;;;;;;;;;4996580;28;20227;-82
2022/01/08 02:51:15;;;;;;;2.55;2.35;;;;;;;;;;4996495;28;20210;-82
2022/01/08 02:53:42;;;;;;;1.77;1.67;;;;;;;;;;4997079;28;20223;-81
2022/01/08 02:56:11;;;;;;;1.70;1.60;;;;;;;;;;4996659;28;20200;-81
2022/01/08 02:58:39;;;;;;;2.70;2.50;;;;;;;;;;4997192;28;20204;-81
2022/01/08 03:01:06;;;;;;;1.67;1.58;;;;;;;;;;4996868;28;20204;-81
2022/01/08 03:03:34;;;;;;;2.50;2.30;;;;;;;;;;4996865;28;20203;-82
2022/01/08 03:06:01;;;;;;;3.13;2.33;;;;;;;;;;4996165;28;20188;-81
2022/01/08 03:08:28;;;;;;;1.90;1.80;;;;;;;;;;4995088;28;20219;-82
2022/01/08 03:10:56;;;;;;;2.45;2.33;;;;;;;;;;4995614;28;20206;-82
2022/01/08 03:13:24;;;;;;;2.10;1.90;;;;;;;;;;4996163;28;20224;-83
2022/01/08 03:15:53;;;;;;;1.83;1.70;;;;;;;;;;4996380;28;20206;-82
2022/01/08 03:18:21;;;;;;;2.08;1.98;;;;;;;;;;4996630;28;20228;-81
2022/01/08 03:21:01;;;;;;;3.35;3.05;;;;;;;;;;4996254;28;20200;-82
2022/01/08 03:23:37;;;;;;;1.98;1.88;;;;;;;;;;4995912;28;20686;-81
2022/01/08 03:26:04;;;;;;;2.10;1.92;;;;;;;;;;4996694;28;20223;-82
2022/01/08 03:28:33;;;;;;;2.20;2.10;;;;;;;;;;4996120;28;20219;-81
2022/01/08 03:31:01;;;;;;;2.80;2.60;;;;;;;;;;4996304;28;20668;-81
2022/01/08 03:33:28;;;;;;;2.28;2.10;;;;;;;;;;4996250;28;20214;-83
2022/01/08 03:35:56;;;;;;;2.05;1.95;;;;;;;;;;4995550;28;20203;-82
2022/01/08 03:38:23;;;;;;;2.70;1.90;;;;;;;;;;4996281;28;20224;-81
2022/01/08 03:40:51;;;;;;;2.92;2.72;;;;;;;;;;4996006;28;20192;-81
2022/01/08 03:43:18;;;;;;;2.92;2.47;;;;;;;;;;4996294;28;20196;-82
2022/01/08 03:45:47;;;;;;;1.92;1.83;;;;;;;;;;4996357;28;20188;-81
2022/01/08 03:48:27;;;;;;;1.85;1.75;;;;;;;;;;4995838;28;20629;-81
2022/01/08 03:50:55;;;;;;;1.73;1.63;;;;;;;;;;4995598;28;20705;-82
2022/01/08 03:53:23;;;;;;;2.30;2.10;;;;;;;;;;4995979;28;20698;-82
2022/01/08 03:55:51;;;;;;;1.85;1.75;;;;;;;;;;4996281;28;20214;-81
2022/01/08 03:58:19;;;;;;;2.42;2.33;;;;;;;;;;4995241;28;20734;-80
2022/01/08 04:00:49;;;;;;;1.80;1.70;;;;;;;;;;4995755;28;20184;-82
2022/01/08 04:03:18;;;;;;;2.50;2.30;;;;;;;;;;4995611;28;20200;-81
2022/01/08 04:05:47;;;;;;;2.42;2.20;;;;;;;;;;4995285;28;20184;-81
2022/01/08 04:08:15;;;;;;;2.10;1.90;;;;;;;;;;4995128;28;20223;-83
2022/01/08 04:10:42;;;;;;;2.00;1.90;;;;;;;;;;4995072;28;20650;-81
2022/01/08 04:13:13;;;;;;;1.40;1.40;;;;;;;;;;4995962;28;20274;-81
2022/01/08 04:15:43;;;;;;;1.30;1.20;;;;;;;;;;4995414;28;20684;-80
2022/01/08 04:18:12;;;;;;;1.48;1.42;;;;;;;;;;4995338;28;20244;-79
2022/01/08 04:20:50;;;;;;;1.70;1.60;;;;;;;;;;4995203;28;20195;-80
2022/01/08 04:23:21;;;;;;;1.33;1.33;;;;;;;;;;4995426;28;20196;-81
2022/01/08 04:25:49;;;;;;;1.48;1.38;;;;;;;;;;4994897;28;20276;-81
2022/01/08 04:28:17;;;;;;;1.25;1.25;;;;;;;;;;4995431;28;20725;-80
2022/01/08 04:30:45;;;;;;;1.63;1.52;;;;;;;;;;4994631;28;20583;-80
2022/01/08 04:33:14;;;;;;;2.42;1.90;;;;;;;;;;4995111;28;20196;-81
2022/01/08 04:35:41;;;;;;;2.22;2.05;;;;;;;;;;4995087;28;20204;-82
2022/01/08 04:38:09;;;;;;;1.55;1.45;;;;;;;;;;4995321;28;20721;-81
2022/01/08 04:40:36;;;;;;;2.65;2.45;;;;;;;;;;4995103;28;20199;-81
2022/01/08 04:43:04;;;;;;;2.05;1.95;;;;;;;;;;4994517;28;20203;-81
2022/01/08 04:45:32;;;;;;;2.22;2.05;;;;;;;;;;4995251;28;20208;-82
2022/01/08 04:48:01;;;;;;;2.20;2.10;;;;;;;;;;4994927;28;20230;-81
2022/01/08 04:50:30;;;;;;;3.22;2.92;;;;;;;;;;4993228;28;20203;-83
2022/01/08 04:52:59;;;;;;;3.20;2.90;;;;;;;;;;4994804;28;20204;-82
2022/01/08 04:55:27;;;;;;;2.83;2.63;;;;;;;;;;4994551;28;20730;-81
2022/01/08 04:57:54;;;;;;;3.88;3.58;;;;;;;;;;4994791;28;20215;-83
2022/01/08 05:00:23;;;;;;;3.72;3.40;;;;;;;;;;4994641;28;20210;-82
2022/01/08 05:02:51;;;;;;;3.25;2.95;;;;;;;;;;4994416;28;20196;-82
2022/01/08 05:05:18;;;;;;;4.22;3.92;;;;;;;;;;4994869;28;20207;-83
2022/01/08 05:07:47;;;;;;;2.55;2.35;;;;;;;;;;4994747;28;20238;-82
2022/01/08 05:10:15;;;;;;;2.25;2.05;;;;;;;;;;4994378;28;20202;-83
2022/01/08 05:12:43;;;;;;;4.30;3.90;;;;;;;;;;4994763;28;20188;-82
2022/01/08 05:15:12;;;;;;;2.60;2.40;;;;;;;;;;4994082;28;20227;-82
2022/01/08 05:17:41;;;;;;;2.95;2.70;;;;;;;;;;4994308;28;20572;-82
2022/01/08 05:20:12;;;;;;;3.65;3.35;;;;;;;;;;4994832;28;20242;-83
2022/01/08 05:22:50;;;;;;;4.32;3.92;;;;;;;;;;4994681;28;20204;-81
2022/01/08 05:25:22;;;;;;;4.07;3.78;;;;;;;;;;4994485;28;20199;-82
2022/01/08 05:27:50;;;;;;;4.32;3.92;;;;;;;;;;4994204;28;20602;-82
2022/01/08 05:30:20;;;;;;;3.60;3.30;;;;;;;;;;4993869;28;20681;-81
2022/01/08 05:32:48;;;;;;;3.05;2.85;;;;;;;;;;4994215;28;20565;-82
2022/01/08 05:35:16;;;;;;;3.58;3.28;;;;;;;;;;4993774;28;20774;-82
2022/01/08 05:37:43;;;;;;;2.90;2.70;;;;;;;;;;4994308;28;20223;-81
2022/01/08 05:40:12;;;;;;;3.33;3.03;;;;;;;;;;4993516;28;20200;-82
2022/01/08 05:42:41;;;;;;;5.80;3.90;;;;;;;;;;4994351;28;20191;-82
2022/01/08 05:45:10;;;;;;;3.70;2.97;;;;;;;;;;4994499;28;20192;-83
2022/01/08 05:47:38;;;;;;;2.75;2.55;;;;;;;;;;4994589;28;20239;-82
2022/01/08 05:50:07;;;;;;;2.95;2.65;;;;;;;;;;4993670;28;20243;-84
2022/01/08 05:52:36;;;;;;;4.32;3.58;;;;;;;;;;4993829;28;20256;-83
2022/01/08 05:55:04;;;;;;;4.07;2.63;;;;;;;;;;4994180;28;20219;-83
2022/01/08 05:57:32;;;;;;;3.58;3.28;;;;;;;;;;4993866;28;20227;-83
2022/01/08 06:00:01;;;;;;;3.90;3.60;;;;;;;;;;4993891;28;20202;-82
2022/01/08 06:02:29;;;;;;;3.10;2.90;;;;;;;;;;4994044;28;20192;-83
2022/01/08 06:04:56;;;;;;;3.70;3.15;;;;;;;;;;4994020;28;20553;-83
2022/01/08 06:07:24;;;;;;;2.65;2.25;;;;;;;;;;4994200;28;20234;-83
2022/01/08 06:09:51;;;;;;;3.83;3.10;;;;;;;;;;4993404;28;20212;-83
2022/01/08 06:12:19;;;;;;;3.40;2.50;;;;;;;;;;4993532;28;20589;-84
2022/01/08 06:14:47;;;;;;;3.05;2.75;;;;;;;;;;4994361;28;20620;-84
2022/01/08 06:17:16;;;;;;;3.90;3.42;;;;;;;;;;4994070;28;20224;-83
2022/01/08 06:19:43;;;;;;;3.90;3.60;;;;;;;;;;4994928;28;20214;-84
2022/01/08 06:22:11;;;;;;;3.83;3.33;;;;;;;;;;4998268;28;20204;-84
2022/01/08 06:24:39;;;;;;;5.43;4.40;;;;;;;;;;4998324;28;20183;-84
2022/01/08 06:27:09;;;;;;;3.88;3.58;;;;;;;;;;4997499;28;20223;-84
2022/01/08 06:29:37;;;;;;;3.30;2.92;;;;;;;;;;4998158;28;20207;-84
2022/01/08 06:32:05;;;;;;;4.68;3.35;;;;;;;;;;4997996;28;20199;-83
2022/01/08 06:34:34;;;;;;;3.88;3.55;;;;;;;;;;4997361;28;20204;-82
2022/01/08 06:37:02;;;;;;;2.58;2.38;;;;;;;;;;4998039;28;20223;-83
2022/01/08 06:39:30;;;;;;;3.28;2.97;;;;;;;;;;4998061;28;20199;-83
2022/01/08 06:41:58;;;;;;;3.60;3.30;;;;;;;;;;4997762;28;20203;-83
2022/01/08 06:44:25;;;;;;;4.28;3.15;;;;;;;;;;4997174;28;20210;-83
2022/01/08 06:46:53;;;;;;;2.95;2.75;;;;;;;;;;4997430;28;20240;-82
2022/01/08 06:49:20;;;;;;;5.68;3.42;;;;;;;;;;4996988;28;20235;-83
2022/01/08 06:51:50;;;;;;;3.10;2.80;;;;;;;;;;4997297;28;20208;-81
2022/01/08 06:54:17;;;;;;;2.22;2.03;;;;;;;;;;4997225;28;20192;-81
2022/01/08 06:56:45;;;;;;;1.98;1.80;;;;;;;;;;4997120;28;20612;-82
2022/01/08 06:59:12;;;;;;;4.50;2.72;;;;;;;;;;4997303;28;20207;-82
2022/01/08 07:01:40;;;;;;;3.83;3.42;;;;;;;;;;4997202;28;20203;-81
2022/01/08 07:04:09;;;;;;;2.13;2.00;;;;;;;;;;5015820;28;20206;-82
2022/01/08 07:06:37;;;;;;;1.65;1.58;;;;;;;;;;5015169;28;20227;-82
2022/01/08 07:09:08;;;;;;;2.17;1.77;;;;;;;;;;4997590;28;20204;-81
2022/01/08 07:11:38;;;;;;;4.97;3.28;;;;;;;;;;4998702;28;20668;-80
2022/01/08 07:14:06;;;;;;;3.08;2.17;;;;;;;;;;4996655;28;20287;-80
2022/01/08 07:16:33;;;;;;;2.22;1.70;;;;;;;;;;4995626;28;20216;-80
2022/01/08 07:19:01;;;;;;;1.77;1.67;;;;;;;;;;4997005;28;20620;-80
2022/01/08 07:21:28;;;;;;;2.35;2.22;;;;;;;;;;5005207;28;20219;-80
2022/01/08 07:23:56;;;;;;;1.40;1.30;;;;;;;;;;5005444;28;20283;-81
2022/01/08 07:26:25;;;;;;;2.67;2.35;;;;;;;;;;5015464;28;20194;-80
2022/01/08 07:28:52;;;;;;;3.92;2.53;;;;;;;;;;5000757;28;20202;-80
2022/01/08 07:31:19;;;;;;;2.30;2.10;;;;;;;;;;5006408;28;20203;-80
2022/01/08 07:33:49;;;;;;;1.70;1.60;;;;;;;;;;5009044;28;20187;-80
2022/01/08 07:36:17;;;;;;;3.40;2.15;;;;;;;;;;5005277;28;20207;-80
2022/01/08 07:38:45;;;;;;;2.30;2.10;;;;;;;;;;5008736;28;20204;-80
2022/01/08 07:41:12;;;;;;;2.70;2.53;;;;;;;;;;5008043;28;20278;-80
2022/01/08 07:43:41;;;;;;;3.47;2.65;;;;;;;;;;5015494;28;20660;-80
2022/01/08 07:46:09;;;;;;;2.85;2.35;;;;;;;;;;5007732;28;20199;-81
2022/01/08 07:48:36;;;;;;;2.90;2.60;;;;;;;;;;5008948;28;20223;-84
2022/01/08 07:51:04;;;;;;;3.30;3.00;;;;;;;;;;5016155;28;20194;-82
2022/01/08 07:53:32;;;;;;;2.67;2.22;;;;;;;;;;5022343;28;20209;-82
2022/01/08 07:56:00;;;;;;;2.92;2.72;;;;;;;;;;5022214;28;20306;-82
2022/01/08 07:58:27;;;;;;;3.17;2.97;;;;;;;;;;5024755;28;20207;-83
2022/01/08 08:00:57;;;;;;;4.53;3.22;;;;;;;;;;5008609;28;20212;-83
2022/01/08 08:03:24;;;;;;;2.83;2.30;;;;;;;;;;4991052;28;20246;-82
2022/01/08 08:05:52;;;;;;;3.00;2.70;;;;;;;;;;4997857;28;20199;-82
2022/01/08 08:08:21;;;;;;;3.70;3.05;;;;;;;;;;4995889;28;20226;-83
2022/01/08 08:10:50;;;;;;;5.93;4.07;;;;;;;;;;4995814;28;20663;-83
2022/01/08 08:13:19;;;;;;;11.25;3.95;;;;;;;;;;4995537;28;20200;-82
2022/01/08 08:15:47;;;;;;;3.88;3.58;;;;;;;;;;4995224;28;20598;-82
2022/01/08 08:18:16;;;;;;;3.67;3.38;;;;;;;;;;5005726;28;20237;-83
2022/01/08 08:20:43;;;;;;;3.78;3.30;;;;;;;;;;5015022;28;20194;-83
2022/01/08 08:23:11;;;;;;;2.67;2.10;;;;;;;;;;5014677;28;20197;-82
2022/01/08 08:25:39;;;;;;;2.75;2.55;;;;;;;;;;5014332;28;20207;-81
2022/01/08 08:28:08;;;;;;;2.83;2.20;;;;;;;;;;5010275;28;20222;-83
2022/01/08 08:30:35;;;;;;;3.60;2.90;;;;;;;;;;4995218;28;20188;-81
2022/01/08 08:33:04;;;;;;;2.70;2.22;;;;;;;;;;4995420;28;20200;-82
2022/01/08 08:35:32;;;;;;;3.33;3.10;;;;;;;;;;4995216;28;20194;-80
2022/01/08 08:38:00;;;;;;;2.47;2.28;;;;;;;;;;4994613;28;20231;-82
2022/01/08 08:40:28;;;;;;;2.03;1.90;;;;;;;;;;4995235;28;20251;-82
2022/01/08 08:42:55;;;;;;;3.58;2.85;;;;;;;;;;5002189;28;20241;-82
2022/01/08 08:45:23;;;;;;;2.42;2.22;;;;;;;;;;4988566;28;20195;-83
2022/01/08 08:47:56;;;;;;;2.60;2.40;;;;;;;;;;5000145;28;20227;-82
2022/01/08 08:50:24;;;;;;;4.90;3.13;;;;;;;;;;4975268;28;20873;-83
2022/01/08 08:52:57;;;;;;;7.55;2.83;;;;;;;;;;4992011;28;20659;-83
2022/01/08 08:55:24;;;;;;;3.53;2.92;;;;;;;;;;4989863;28;20584;-83
2022/01/08 08:57:54;;;;;;;3.63;2.22;;;;;;;;;;4974546;28;20292;-82
2022/01/08 09:00:25;;;;;;;5.05;2.92;;;;;;;;;;4983986;28;20714;-82
2022/01/08 09:02:52;;;;;;;7.82;3.08;;;;;;;;;;4993807;28;20254;-81
2022/01/08 09:05:22;;;;;;;2.08;1.98;;;;;;;;;;4993871;28;20215;-81
2022/01/08 09:07:51;;;;;;;2.30;2.10;;;;;;;;;;4992944;28;20226;-81
2022/01/08 09:10:23;;;;;;;2.65;2.17;;;;;;;;;;4993283;28;20202;-82
2022/01/08 09:12:50;;;;;;;2.78;2.42;;;;;;;;;;4993409;28;20198;-81
2022/01/08 09:15:21;;;;;;;4.05;2.03;;;;;;;;;;4993019;28;20282;-81
2022/01/08 09:17:49;;;;;;;2.50;1.90;;;;;;;;;;4993702;28;20234;-81
2022/01/08 09:20:17;;;;;;;3.25;1.98;;;;;;;;;;4998155;28;20201;-82
2022/01/08 09:22:45;;;;;;;3.22;2.15;;;;;;;;;;5001099;28;20200;-82
2022/01/08 09:25:14;;;;;;;4.57;2.33;;;;;;;;;;4995891;28;20187;-82
2022/01/08 09:27:42;;;;;;;2.67;1.70;;;;;;;;;;4997811;28;20224;-82
2022/01/08 09:30:10;;;;;;;2.40;2.20;;;;;;;;;;4993405;28;20192;-82
2022/01/08 09:32:38;;;;;;;1.70;1.60;;;;;;;;;;4993436;28;20660;-82
2022/01/08 09:35:15;;;;;;;4.13;2.25;;;;;;;;;;4993240;28;20607;-83
2022/01/08 09:37:43;;;;;;;1.92;1.83;;;;;;;;;;4993311;28;20231;-82
2022/01/08 09:40:20;;;;;;;2.85;1.90;;;;;;;;;;4992981;28;20200;-82
2022/01/08 09:42:47;;;;;;;3.15;2.35;;;;;;;;;;4989973;28;20191;-83
2022/01/08 09:45:15;;;;;;;2.95;2.75;;;;;;;;;;4993088;28;20188;-84
2022/01/08 09:47:42;;;;;;;2.38;2.08;;;;;;;;;;4993211;28;20220;-82
2022/01/08 09:50:12;;;;;;;2.65;2.15;;;;;;;;;;4992702;28;20228;-82
2022/01/08 09:52:39;;;;;;;2.90;2.28;;;;;;;;;;4992677;28;20660;-82
2022/01/08 09:55:08;;;;;;;2.08;1.85;;;;;;;;;;4991899;28;20200;-81
2022/01/08 09:57:37;;;;;;;2.20;2.00;;;;;;;;;;4992596;28;20351;-83
2022/01/08 10:00:14;;;;;;;2.63;2.42;;;;;;;;;;4993281;28;20188;-83
2022/01/08 10:02:41;;;;;;;3.33;2.05;;;;;;;;;;4993105;28;20207;-83
2022/01/08 10:05:11;;;;;;;3.92;2.53;;;;;;;;;;4993426;28;20203;-84
2022/01/08 10:07:40;;;;;;;2.92;2.08;;;;;;;;;;4994522;28;20219;-83
2022/01/08 10:10:14;;;;;;;2.22;1.73;;;;;;;;;;4992657;28;20206;-83
2022/01/08 10:12:48;;;;;;;2.13;1.90;;;;;;;;;;4994523;28;20713;-83
2022/01/08 10:18:08;;;;;;;3.80;1.85;;;;;;;;;;4993831;28;20223;-83
2022/01/08 10:20:38;;;;;;;2.08;1.80;;;;;;;;;;4994333;28;20187;-82
2022/01/08 10:23:18;;;;;;;2.92;2.30;;;;;;;;;;4993796;28;20206;-84
2022/01/08 10:25:59;;;;;;;2.70;2.35;;;;;;;;;;4994717;28;20199;-82
2022/01/08 10:28:43;;;;;;;2.47;2.17;;;;;;;;;;4993150;28;20215;-83
2022/01/08 10:31:17;;;;;;;2.30;1.98;;;;;;;;;;4989006;28;20192;-83
2022/01/08 10:33:48;;;;;;;2.75;1.90;;;;;;;;;;4994147;28;20187;-83
2022/01/08 10:36:20;;;;;;;2.17;2.00;;;;;;;;;;4994693;28;20226;-83
2022/01/08 10:38:52;;;;;;;1.73;1.63;;;;;;;;;;4994291;28;20204;-83
2022/01/08 10:41:20;;;;;;;5.40;2.20;;;;;;;;;;4993577;28;20254;-84
2022/01/08 10:43:50;;;;;;;1.90;1.80;;;;;;;;;;4994880;28;20198;-83
2022/01/08 10:46:20;;;;;;;3.72;3.00;;;;;;;;;;4994270;28;20196;-83
2022/01/08 10:48:50;;;;;;;3.03;1.90;;;;;;;;;;4983129;28;20722;-83
2022/01/08 10:51:21;;;;;;;3.53;2.78;;;;;;;;;;4993613;28;20573;-84
2022/01/08 10:54:09;;;;;;;2.67;2.40;;;;;;;;;;4994046;28;20206;-83
2022/01/08 10:56:39;;;;;;;2.58;2.38;;;;;;;;;;4993637;28;20578;-84
2022/01/08 10:59:15;;;;;;;3.92;1.98;;;;;;;;;;4994372;28;20223;-84
2022/01/08 11:01:52;;;;;;;2.47;2.17;;;;;;;;;;4995320;28;20578;-83
2022/01/08 11:04:33;;;;;;;3.35;2.90;;;;;;;;;;4994445;28;20203;-83
2022/01/08 11:07:02;;;;;;;5.60;2.28;;;;;;;;;;4995916;28;20219;-84
2022/01/08 11:09:31;;;;;;;2.45;1.90;;;;;;;;;;4998133;28;20180;-84
2022/01/08 11:12:01;;;;;;;3.22;2.42;;;;;;;;;;4998809;28;20184;-84
2022/01/08 11:15:00;;;;;;;2.75;2.40;;;;;;;;;;4998182;28;20187;-84
2022/01/08 11:17:33;;;;;;;3.30;3.00;;;;;;;;;;4997956;28;20240;-84
2022/01/08 11:20:06;;;;;;;2.20;2.00;;;;;;;;;;4998125;28;20207;-84
2022/01/08 11:22:36;;;;;;;2.80;2.22;;;;;;;;;;4998285;28;20810;-83
2022/01/08 11:25:07;;;;;;;3.50;2.58;;;;;;;;;;4997916;28;20625;-82
2022/01/08 11:27:47;;;;;;;2.60;2.30;;;;;;;;;;4998867;28;20635;-82
2022/01/08 11:30:20;;;;;;;3.05;1.90;;;;;;;;;;4997453;28;20550;-83
2022/01/08 11:32:49;;;;;;;2.95;2.60;;;;;;;;;;4998024;28;20203;-85
2022/01/08 11:35:17;;;;;;;4.35;3.53;;;;;;;;;;4998777;28;20710;-84
2022/01/08 12:49:14;;;;;;;3.08;2.78;;;;;;;;;;5056365;23;20290;-85
2022/01/08 12:52:06;;;;;;;4.57;2.83;;;;;;;;;;4918584;29;20265;-85
2022/01/08 12:54:36;;;;;;;3.35;3.05;;;;;;;;;;4918186;29;20258;-85
2022/01/08 12:57:05;;;;;;;2.88;2.67;;;;;;;;;;4917627;29;20601;-85
2022/01/08 12:59:37;;;;;;;4.18;3.17;;;;;;;;;;4917449;29;20210;-85
2022/01/08 13:02:08;;;;;;;3.03;2.50;;;;;;;;;;4916854;29;20193;-84
2022/01/08 13:04:39;;;;;;;4.28;3.15;;;;;;;;;;4917660;29;20190;-84
2022/01/08 13:07:07;;;;;;;3.60;3.30;;;;;;;;;;4916518;29;20222;-85
2022/01/08 13:09:34;;;;;;;3.47;3.00;;;;;;;;;;4916947;29;20294;-87
2022/01/08 13:12:02;;;;;;;3.42;2.92;;;;;;;;;;4914692;29;20609;-85
2022/01/08 13:14:30;;;;;;;3.65;3.35;;;;;;;;;;4914339;29;20224;-86
2022/01/08 13:16:59;;;;;;;3.35;3.05;;;;;;;;;;4916950;29;20251;-84
2022/01/08 13:19:30;;;;;;;3.15;2.85;;;;;;;;;;4918819;29;20237;-84
2022/01/08 13:22:02;;;;;;;4.70;3.30;;;;;;;;;;4912951;29;20195;-83
2022/01/08 13:36:47;;;;;;;;;;;;;;;;;;;;;
2022/01/08 13:43:58;;;;;;;6.00;4.72;;;;;;;;;;4880053;29;20218;-83
2022/01/08 14:19:40;;;;;;;3.60;2.90;;;;;;;;;;3056113;23;20312;-82
2022/01/08 14:22:09;;;;;;;3.17;2.88;;;;;;;;;;4936244;29;20217;-83
2022/01/08 14:24:39;;;;;;;4.25;2.90;;;;;;;;;;4936443;29;20236;-82
2022/01/08 14:27:09;;;;;;;4.78;2.75;;;;;;;;;;4930339;29;20225;-82
2022/01/08 14:29:39;;;;;;;3.03;2.67;;;;;;;;;;4928694;29;20186;-81
2022/01/08 14:32:08;;;;;;;3.20;2.90;;;;;;;;;;4936096;29;20227;-83
2022/01/08 14:34:49;;;;;;;5.28;3.38;;;;;;;;;;4922746;29;20687;-83
2022/01/08 15:03:22;;;;;;;3.22;2.08;;;;;;;;;;4910943;29;20326;-84
2022/01/08 15:05:49;;;;;;;2.30;2.10;;;;;;;;;;4903329;29;20255;-83
2022/01/08 15:08:17;;;;;;;3.58;2.35;;;;;;;;;;4902322;29;20219;-83
2022/01/08 15:10:44;;;;;;;2.42;2.22;;;;;;;;;;4902110;29;20214;-83
2022/01/08 15:13:12;;;;;;;2.40;2.20;;;;;;;;;;4903037;29;20196;-83
2022/01/08 15:15:39;;;;;;;6.45;2.88;;;;;;;;;;4902217;29;20195;-84
2022/01/08 15:18:07;;;;;;;2.20;2.03;;;;;;;;;;4901412;29;20310;-83
2022/01/08 15:20:35;;;;;;;5.45;2.35;;;;;;;;;;4901385;29;20334;-83
2022/01/08 15:23:04;;;;;;;2.75;2.55;;;;;;;;;;4902481;29;20203;-83
2022/01/08 15:25:32;;;;;;;5.00;2.58;;;;;;;;;;4902261;29;20202;-84
2022/01/08 15:28:00;;;;;;;3.53;2.35;;;;;;;;;;4901910;29;20242;-84
2022/01/08 15:30:29;;;;;;;2.67;2.30;;;;;;;;;;4901738;29;20684;-84
2022/01/08 17:12:59;;;;;;;6.22;5.28;;;;;;;;;;4908418;29;20249;-80
2022/01/08 17:26:06;;;;;;;8.57;5.82;;;;;;;;;;4768233;30;20212;-81
2022/01/08 17:50:53;;;;;;;4.32;3.55;;;;;;;;;;4706069;30;20714;-81
2022/01/08 17:53:20;;;;;;;4.72;3.45;;;;;;;;;;4787270;29;20211;-81
2022/01/08 17:55:54;;;;;;;3.78;3.47;;;;;;;;;;4853198;29;20208;-81
2022/01/08 17:58:21;;;;;;;5.80;3.70;;;;;;;;;;4860234;29;20275;-83
2022/01/08 18:00:49;;;;;;;9.00;3.55;;;;;;;;;;4879978;29;20235;-81
2022/01/08 18:03:20;;;;;;;2.75;2.55;;;;;;;;;;4882521;29;20282;-82
2022/01/08 18:05:48;;;;;;;3.65;2.50;;;;;;;;;;4897901;29;20740;-82
2022/01/08 18:08:18;;;;;;;4.25;3.00;;;;;;;;;;4890233;29;20255;-82
2022/01/08 18:10:46;;;;;;;3.22;2.70;;;;;;;;;;4879945;29;20669;-81
2022/01/08 18:13:18;;;;;;;4.00;2.83;;;;;;;;;;4883637;29;20274;-81
2022/01/08 18:15:45;;;;;;;3.35;3.05;;;;;;;;;;4895790;29;20241;-82
2022/01/08 18:18:13;;;;;;;3.10;2.67;;;;;;;;;;4909797;29;20242;-82
2022/01/08 18:20:41;;;;;;;3.85;2.42;;;;;;;;;;4902471;29;20290;-81
2022/01/08 18:23:08;;;;;;;2.78;2.42;;;;;;;;;;4902478;29;20649;-81
2022/01/08 18:25:37;;;;;;;2.92;2.03;;;;;;;;;;4901976;29;20595;-81
2022/01/08 18:28:05;;;;;;;3.38;2.70;;;;;;;;;;4903195;29;20215;-81
2022/01/08 18:30:33;;;;;;;2.53;2.28;;;;;;;;;;4920694;29;20209;-80
2022/01/08 18:33:01;;;;;;;3.38;2.42;;;;;;;;;;4921345;29;20186;-81
2022/01/08 18:35:29;;;;;;;3.83;2.42;;;;;;;;;;4908468;29;20234;-81
2022/01/08 18:37:56;;;;;;;2.83;2.50;;;;;;;;;;4902071;29;20231;-81
2022/01/08 18:40:26;;;;;;;2.40;2.05;;;;;;;;;;4900034;29;20238;-81
2022/01/08 18:42:56;;;;;;;2.70;2.50;;;;;;;;;;4901403;29;20668;-81
2022/01/08 18:45:30;;;;;;;2.20;2.00;;;;;;;;;;4914256;29;20222;-81
2022/01/08 18:47:58;;;;;;;2.00;1.80;;;;;;;;;;4921180;29;20226;-81
2022/01/08 18:50:26;;;;;;;2.92;2.08;;;;;;;;;;4920873;29;20202;-81
2022/01/08 18:52:54;;;;;;;4.47;2.17;;;;;;;;;;4920856;29;20719;-82
2022/01/08 18:55:21;;;;;;;2.10;1.80;;;;;;;;;;4896800;29;20208;-81
2022/01/08 18:57:49;;;;;;;2.50;2.30;;;;;;;;;;4883478;29;20236;-82
2022/01/08 19:00:19;;;;;;;2.33;2.13;;;;;;;;;;4911876;29;20210;-83
2022/01/08 19:02:47;;;;;;;2.63;1.80;;;;;;;;;;4883398;29;20212;-81
2022/01/08 19:05:18;;;;;;;2.13;2.00;;;;;;;;;;4882649;29;20256;-82
2022/01/08 19:07:48;;;;;;;1.75;1.65;;;;;;;;;;4883046;29;20230;-82
2022/01/08 19:10:16;;;;;;;1.88;1.77;;;;;;;;;;4882940;29;20191;-81
2022/01/08 19:12:53;;;;;;;2.45;1.95;;;;;;;;;;4890323;29;20213;-82
2022/01/08 19:15:24;;;;;;;1.55;1.45;;;;;;;;;;4920723;29;20238;-83
2022/01/08 19:17:52;;;;;;;3.20;2.03;;;;;;;;;;4920083;29;20226;-82
2022/01/08 19:20:20;;;;;;;2.33;2.13;;;;;;;;;;4919938;29;20671;-82
2022/01/08 19:22:49;;;;;;;2.15;1.80;;;;;;;;;;4920215;29;20218;-83
2022/01/08 19:25:18;;;;;;;2.13;1.92;;;;;;;;;;4907909;29;20817;-80
2022/01/08 19:27:45;;;;;;;2.08;1.80;;;;;;;;;;4901640;29;20233;-81
2022/01/08 19:30:14;;;;;;;1.77;1.67;;;;;;;;;;4901503;29;20647;-81
2022/01/08 19:32:43;;;;;;;2.33;2.05;;;;;;;;;;4901867;29;20203;-81
2022/01/08 19:35:12;;;;;;;3.13;2.70;;;;;;;;;;4901703;29;20199;-81
2022/01/08 19:37:39;;;;;;;1.95;1.83;;;;;;;;;;4902098;29;20231;-81
2022/01/08 19:40:09;;;;;;;3.83;2.35;;;;;;;;;;4901342;29;20207;-82
2022/01/08 19:42:36;;;;;;;2.15;1.95;;;;;;;;;;4901198;29;20711;-81
2022/01/08 19:45:13;;;;;;;3.38;2.10;;;;;;;;;;4901460;29;20214;-80
2022/01/08 19:47:42;;;;;;;3.60;2.60;;;;;;;;;;4900384;29;20309;-81
2022/01/08 19:50:13;;;;;;;2.78;2.58;;;;;;;;;;4892017;29;20676;-81
2022/01/08 19:52:40;;;;;;;2.05;1.95;;;;;;;;;;4896382;29;20192;-82